Latest Weather Observations for Norah Head

IDN60901

Issued at 5:01 pm EDT Wednesday 22 February 2017 (issued every 10 minutes, with the page automatically refreshed every 10 minutes)

About weather observations | Map of Sydney area stations | Latest observations for Sydney area | Other Formats
Station Details ID: 061366 Name: NORAH HEAD AWS Lat: -33.28 Lon: 151.58 Height: 18.8 m
Data from the previous 72 hours. | See also: Recent months at Norah Head
Date/Time
EDT
Temp
°C
App
Temp
°C
Dew
Point
°C
Rel
Hum
%
Delta-T
°C
Wind Press
QNH
hPa
Press
MSL
hPa
Rain since
9am
mm
Dir  Spd
km/h
Gust
km/h
Spd
kts
Gust
kts
22/04:30pm 24.7 22.3 19.1 71 3.6 NE 30 35 16 19 1017.9 1017.8 0.0
22/04:00pm 25.7 23.3 19.1 67 4.2 NE 30 33 16 18 1018.0 1017.9 0.0
22/03:30pm 26.8 24.5 19.4 64 4.8 NE 30 35 16 19 1018.4 1018.3 0.0
22/03:00pm 27.2 25.0 19.5 62 5.0 NE 30 33 16 18 1018.7 1018.6 0.0
22/02:30pm 27.8 25.7 19.8 61 5.2 NE 30 33 16 18 1019.0 1018.9 0.0
22/02:00pm 27.7 25.9 19.5 61 5.3 NE 28 35 15 19 1019.3 1019.2 0.0
22/01:30pm 27.9 25.8 19.7 61 5.3 NE 30 35 16 19 1019.7 1019.6 0.0
22/01:00pm 27.9 26.6 19.9 61 5.2 NE 26 32 14 17 1019.9 1019.8 0.0
22/12:30pm 27.9 26.6 19.9 61 5.2 NE 26 30 14 16 1020.3 1020.2 0.0
22/12:00pm 27.7 26.9 20.0 63 5.0 NE 24 28 13 15 1020.8 1020.7 0.0
22/11:30am 27.2 28.2 20.3 66 4.5 ENE 15 19 8 10 1021.2 1021.1 0.0
22/11:00am 27.0 28.5 20.6 68 4.2 NE 13 15 7 8 1021.5 1021.4 0.0
22/10:30am 25.3 26.0 19.7 71 3.6 NE 15 17 8 9 1021.5 1021.4 0.0
22/10:00am 24.5 25.2 19.6 74 3.1 NNE 15 17 8 9 1021.5 1021.4 0.0
22/09:30am 23.8 24.6 19.9 79 2.5 NNE 15 17 8 9 1021.5 1021.4 0.0
22/09:00am 23.7 24.5 19.8 79 2.5 NNE 15 19 8 10 1021.3 1021.2 0.0
22/08:30am 22.6 23.4 19.9 85 1.7 NNE 15 17 8 9 1021.2 1021.1 0.0
22/08:00am 22.3 22.6 19.5 84 1.8 NNE 17 20 9 11 1020.9 1020.8 0.0
22/07:30am 22.1 21.8 19.5 85 1.7 NNE 20 24 11 13 1020.6 1020.5 0.0
22/07:00am 21.2 21.5 19.5 90 1.1 NNE 17 19 9 10 1020.2 1020.1 0.0
22/06:30am 21.2 20.8 19.3 89 1.2 NNE 20 22 11 12 1019.9 1019.8 0.0
22/06:00am 21.1 20.6 19.2 89 1.2 NE 20 24 11 13 1019.7 1019.6 0.0
22/05:30am 21.0 20.9 19.5 91 1.0 NE 19 20 10 11 1019.6 1019.5 0.0
22/05:00am 21.0 21.3 19.7 92 0.8 NE 17 20 9 11 1019.5 1019.4 0.0
22/04:30am 21.1 21.0 19.6 91 1.0 NE 19 20 10 11 1019.3 1019.2 0.0
22/04:00am 21.1 21.3 19.4 90 1.1 NE 17 20 9 11 1019.2 1019.1 0.0
22/03:30am 21.2 21.2 19.7 91 1.0 NE 19 20 10 11 1019.1 1019.0 0.0
22/03:00am 21.3 21.6 19.6 90 1.1 NE 17 20 9 11 1019.3 1019.2 0.0
22/02:30am 21.4 21.7 19.5 89 1.2 NE 17 20 9 11 1019.6 1019.5 0.0
22/02:00am 21.3 21.1 19.4 89 1.2 NE 19 20 10 11 1019.9 1019.8 0.0
22/01:30am 21.3 21.0 19.2 88 1.3 NE 19 22 10 12 1020.1 1020.0 0.0
22/01:00am 21.3 21.1 19.4 89 1.2 NE 19 20 10 11 1020.3 1020.2 0.0
22/12:30am 21.3 21.0 19.2 88 1.3 NE 19 20 10 11 1020.6 1020.5 0.0
22/12:00am 21.2 20.8 18.9 87 1.4 NE 19 20 10 11 1020.7 1020.6 0.0
 
Date/Time
EDT
Temp
°C
App
Temp
°C
Dew
Point
°C
Rel
Hum
%
Delta-T
°C
Wind Press
QNH
hPa
Press
MSL
hPa
Rain since
9am
mm
Dir  Spd
km/h
Gust
km/h
Spd
kts
Gust
kts
21/11:30pm 21.6 21.1 19.0 85 1.6 NE 20 22 11 12 1020.6 1020.5 0.0
21/11:00pm 21.7 20.8 19.1 85 1.6 NE 22 24 12 13 1020.7 1020.6 0.0
21/10:30pm 21.8 20.3 18.6 82 2.0 NE 24 30 13 16 1020.8 1020.7 0.0
21/10:00pm 21.8 20.2 18.4 81 2.1 NE 24 28 13 15 1021.1 1021.0 0.0
21/09:30pm 22.1 20.1 18.3 79 2.4 NE 26 32 14 17 1020.7 1020.6 0.0
21/09:00pm 22.1 20.1 18.3 79 2.4 NE 26 30 14 16 1020.5 1020.4 0.0
21/08:30pm 22.2 20.2 18.2 78 2.5 NE 26 30 14 16 1020.3 1020.2 0.0
21/08:00pm 22.0 19.8 17.8 77 2.6 NE 26 32 14 17 1020.1 1020.0 0.0
21/07:30pm 22.3 20.0 17.7 75 2.9 NE 26 32 14 17 1019.9 1019.8 0.0
21/07:00pm 23.0 20.8 17.9 73 3.2 NE 26 32 14 17 1019.3 1019.2 0.0
21/06:30pm 24.3 23.4 17.8 67 4.1 NE 19 24 10 13 1018.9 1018.8 0.0
21/06:00pm 25.0 23.9 17.2 62 4.8 NE 19 22 10 12 1018.7 1018.6 0.0
21/05:30pm 25.5 24.7 17.9 63 4.8 NE 19 22 10 12 1018.5 1018.4 0.0
21/05:00pm 26.4 26.0 18.0 60 5.3 ENE 17 19 9 10 1018.4 1018.3 0.0
21/04:30pm 27.1 26.9 18.4 59 5.5 ENE 17 20 9 11 1018.2 1018.1 0.0
21/04:00pm 26.9 27.1 18.5 60 5.3 ENE 15 19 8 10 1018.2 1018.1 0.0
21/03:30pm 25.4 26.3 17.6 62 4.9 E 9 11 5 6 1018.2 1018.1 0.0
21/03:00pm 25.6 26.5 17.5 61 5.1 ESE 9 11 5 6 1018.3 1018.2 0.0
21/02:30pm 26.1 27.0 17.5 59 5.4 SE 9 11 5 6 1018.7 1018.6 0.0
21/02:00pm 26.2 27.5 19.3 65 4.4 S 11 13 6 7 1019.0 1018.9 0.0
21/01:30pm 25.0 26.2 19.1 70 3.8 SSW 11 15 6 8 1019.3 1019.2 0.0
21/01:00pm 24.5 24.6 18.4 69 3.8 SSW 15 20 8 11 1019.6 1019.5 0.0
21/12:30pm 23.4 23.0 17.2 68 3.8 SSW 15 19 8 10 1019.7 1019.6 0.0
21/12:00pm 23.4 22.3 16.4 64 4.3 SSW 17 20 9 11 1020.0 1019.9 0.0
21/11:30am 22.9 21.4 15.2 62 4.6 SSW 17 22 9 12 1020.1 1020.0 0.0
21/11:00am 23.1 22.2 14.9 60 4.9 SSW 13 17 7 9 1020.2 1020.1 0.0
21/10:30am 21.9 20.9 13.3 58 4.9 SSW 11 15 6 8 1020.2 1020.1 0.0
21/10:00am 21.8 20.1 12.4 55 5.3 SSW 13 17 7 9 1019.9 1019.8 0.0
21/09:30am 21.7 19.8 11.7 53 5.6 SSW 13 17 7 9 1019.5 1019.4 0.0
21/09:00am 20.4 18.5 10.5 53 5.4 SSW 11 17 6 9 1019.2 1019.1 0.0
21/08:30am 19.9 18.8 11.9 60 4.4 SW 9 15 5 8 1018.9 1018.8 0.0
21/08:00am 19.2 18.9 13.2 68 3.4 SW 7 13 4 7 1018.4 1018.3 0.0
21/07:30am 18.3 17.6 14.4 78 2.2 SW 11 17 6 9 1018.0 1017.9 0.0
21/07:00am 18.2 17.2 14.7 80 2.0 SW 13 19 7 10 1017.7 1017.6 0.0
21/06:30am 18.4 18.5 15.6 84 1.7 SW 9 11 5 6 1017.2 1017.1 0.0
21/06:00am 18.7 18.6 16.1 85 1.5 SW 11 15 6 8 1016.9 1016.8 0.0
21/05:30am 19.1 19.4 16.0 82 1.8 SW 9 13 5 7 1016.6 1016.5 0.0
21/05:00am 19.2 19.6 15.3 78 2.3 SW 7 11 4 6 1016.3 1016.2 0.0
21/04:30am 19.1 19.6 15.6 80 2.1 SW 7 9 4 5 1016.4 1016.3 0.0
21/04:00am 19.0 20.9 15.7 81 2.0 CALM 0 0 0 0 1016.3 1016.2 0.0
21/03:30am 19.3 21.2 15.8 80 2.1 CALM 0 0 0 0 1016.1 1016.0 0.0
21/03:00am 19.1 20.6 15.6 80 2.1 NW 2 4 1 2 1016.2 1016.1 0.0
21/02:30am 19.1 19.8 15.6 80 2.1 NW 6 6 3 3 1016.1 1016.0 0.0
21/02:00am 19.2 19.8 15.3 78 2.3 NW 6 9 3 5 1016.1 1016.0 0.0
21/01:30am 19.3 19.8 15.0 76 2.5 NW 6 9 3 5 1016.4 1016.3 0.0
21/01:00am 19.1 18.9 14.6 75 2.6 NNW 9 11 5 6 1016.4 1016.3 0.0
21/12:30am 19.4 19.0 14.2 72 3.0 NNW 9 11 5 6 1016.5 1016.4 0.0
21/12:00am 20.0 19.3 14.4 70 3.3 N 11 13 6 7 1016.4 1016.3 0.0
 
Date/Time
EDT
Temp
°C
App
Temp
°C
Dew
Point
°C
Rel
Hum
%
Delta-T
°C
Wind Press
QNH
hPa
Press
MSL
hPa
Rain since
9am
mm
Dir  Spd
km/h
Gust
km/h
Spd
kts
Gust
kts
20/11:30pm 20.0 19.2 13.9 68 3.5 N 11 13 6 7 1016.2 1016.1 0.0
20/11:00pm 20.1 19.6 14.9 72 3.0 N 11 13 6 7 1016.0 1015.9 0.0
20/10:30pm 20.0 18.7 14.8 72 3.0 N 15 17 8 9 1015.8 1015.7 0.0
20/10:00pm 20.2 18.7 15.4 74 2.8 N 17 19 9 10 1015.6 1015.5 0.0
20/09:30pm 20.5 19.7 16.1 76 2.6 N 15 19 8 10 1015.1 1015.0 0.0
20/09:00pm 20.2 20.3 15.4 74 2.8 NNW 9 11 5 6 1014.7 1014.6 0.0
20/08:30pm 21.3 21.5 16.7 75 2.8 NNE 11 13 6 7 1014.1 1014.0 0.0
20/08:00pm 21.7 20.2 13.1 58 4.9 E 13 15 7 8 1013.3 1013.2 0.0
20/07:30pm 22.5 19.9 11.9 51 6.0 E 17 20 9 11 1012.5 1012.4 0.0
20/07:00pm 22.8 19.6 11.2 48 6.5 ESE 19 22 10 12 1011.8 1011.7 0.0
20/06:30pm 22.9 19.9 11.9 50 6.2 E 19 24 10 13 1011.2 1011.1 0.0
20/06:00pm 23.2 19.7 10.9 46 6.8 ESE 20 24 11 13 1010.9 1010.8 0.0
20/05:30pm 23.5 20.1 11.2 46 6.9 ESE 20 24 11 13 1010.7 1010.6 0.0
20/05:00pm 23.5 19.8 10.2 43 7.3 E 20 24 11 13 1010.3 1010.2 0.0
20/04:30pm 23.7 20.1 10.7 44 7.2 ESE 20 24 11 13 1010.2 1010.1 0.0
20/04:00pm 23.7 19.3 8.9 39 8.0 ESE 22 26 12 14 1010.0 1009.9 0.0
20/03:30pm 24.3 20.2 10.2 41 7.8 SE 22 26 12 14 1010.0 1009.9 0.0
20/03:00pm 24.0 20.1 9.6 40 7.9 ESE 20 24 11 13 1010.2 1010.1 0.0
20/02:30pm 24.9 21.2 13.8 50 6.5 SSE 26 32 14 17 1010.0 1009.9 0.0
20/02:00pm 24.4 20.5 12.0 46 7.1 S 24 30 13 16 1010.2 1010.1 0.0
20/01:30pm 25.0 22.8 12.2 44 7.3 S 15 19 8 10 1010.4 1010.3 0.0
20/01:00pm 25.3 23.4 9.2 36 8.8 SW 9 17 5 9 1010.7 1010.6 0.0
20/12:30pm 24.4 21.8 6.2 31 9.4 WSW 9 20 5 11 1011.0 1010.9 0.0
20/12:00pm 24.1 21.2 6.4 32 9.1 WSW 11 22 6 12 1011.3 1011.2 0.0
20/11:30am 23.2 20.8 6.9 35 8.4 W 9 20 5 11 1011.6 1011.5 0.0
20/11:00am 22.6 20.1 8.0 39 7.7 W 11 28 6 15 1011.7 1011.6 0.0
20/10:30am 21.9 18.9 7.7 40 7.4 W 13 26 7 14 1011.6 1011.5 0.0
20/10:00am 21.4 18.9 8.3 43 6.9 WSW 11 20 6 11 1011.7 1011.6 0.0
20/09:30am 20.6 18.7 7.6 43 6.7 W 7 17 4 9 1011.4 1011.3 0.0
20/09:00am 20.3 18.6 8.3 46 6.3 W 7 20 4 11 1011.3 1011.2 0.0
20/08:30am 19.5 17.4 8.2 48 5.8 W 9 17 5 9 1011.3 1011.2 0.0
20/08:00am 18.9 17.0 7.7 48 5.7 W 7 17 4 9 1011.1 1011.0 0.0
20/07:30am 18.0 16.3 7.7 51 5.2 WNW 6 9 3 5 1011.0 1010.9 0.0
20/07:00am 17.5 15.5 7.3 51 5.1 W 7 11 4 6 1010.7 1010.6 0.0
20/06:30am 17.6 15.3 7.6 52 5.1 W 9 11 5 6 1010.3 1010.2 0.0
20/06:00am 17.6 15.5 8.2 54 4.8 W 9 13 5 7 1009.8 1009.7 0.0
20/05:30am 17.9 15.7 7.9 52 5.1 W 9 15 5 8 1009.4 1009.3 0.0
20/05:00am 18.3 16.3 8.8 54 4.9 W 9 13 5 7 1008.9 1008.9 0.0
20/04:30am 18.8 16.8 8.5 51 5.3 W 9 15 5 8 1008.4 1008.4 0.0
20/04:00am 19.0 16.6 8.6 51 5.4 W 11 19 6 10 1008.2 1008.2 0.0
20/03:30am 19.0 17.8 11.6 62 4.1 W 9 17 5 9 1007.8 1007.8 0.0
20/03:00am 19.5 18.9 13.4 68 3.5 WSW 9 17 5 9 1007.2 1007.2 0.0
20/02:30am 19.9 20.9 17.7 87 1.4 WSW 9 17 5 9 1006.7 1006.7 0.0
20/02:00am 20.4 22.0 19.9 97 0.3 WSW 11 22 6 12 1006.5 1006.5 0.0
20/01:30am 20.4 22.1 20.1 98 0.2 W 11 20 6 11 1006.5 1006.5 0.0
20/01:00am 20.3 21.5 19.8 97 0.3 W 13 19 7 10 1006.4 1006.4 0.0
20/12:30am 20.3 21.7 19.6 96 0.4 WSW 11 17 6 9 1006.6 1006.6 0.0
20/12:00am 20.2 21.6 19.5 96 0.4 WSW 11 17 6 9 1006.7 1006.7 0.0
 
Date/Time
EDT
Temp
°C
App
Temp
°C
Dew
Point
°C
Rel
Hum
%
Delta-T
°C
Wind Press
QNH
hPa
Press
MSL
hPa
Rain since
9am
mm
Dir  Spd
km/h
Gust
km/h
Spd
kts
Gust
kts
19/11:30pm 20.1 20.6 19.3 95 0.5 SW 15 24 8 13 1006.3 1006.3 0.0
19/11:00pm 21.6 23.7 20.1 91 1.0 W 9 13 5 7 1005.6 1005.6 0.0
19/10:30pm 20.7 22.8 19.0 90 1.1 WNW 6 9 3 5 1005.8 1005.8 0.0
19/10:00pm 19.9 22.2 17.7 87 1.4 NW 2 4 1 2 1006.1 1006.1 0.0
19/09:30pm 19.9 20.4 17.5 86 1.5 SSW 11 19 6 10 1005.8 1005.8 0.0
19/09:00pm 20.0 21.1 17.2 84 1.7 SW 7 24 4 13 1005.6 1005.6 0.0
19/08:30pm 21.3 22.1 20.6 96 0.5 N 17 19 9 10 1005.0 1004.9 0.0
19/08:00pm 21.1 22.5 20.3 95 0.5 N 13 13 7 7 1005.3 1005.3 0.0
19/07:30pm 21.1 22.9 19.6 91 1.0 NNW 9 13 5 7 1005.3 1005.3 0.0
19/07:00pm 21.9 25.0 20.2 90 1.1 N 4 6 2 3 1005.2 1005.2 0.0
19/06:30pm 21.9 24.8 19.8 88 1.3 NE 4 6 2 3 1005.1 1005.1 0.0
19/06:00pm 21.5 23.9 18.9 85 1.6 N 4 7 2 4 1005.1 1005.1 0.0
19/05:30pm 21.4 23.2 18.2 82 2.0 N 6 9 3 5 1005.3 1005.3 0.0

Latest Capital City Observations: Canberra | Sydney | Melbourne | Brisbane | Adelaide | Perth | Hobart | Darwin

Other Formats:

Comma delimited format used in spreadsheet applications
http://www.bom.gov.au/fwo/IDN60901/IDN60901.95770.axf

JavaScript Object Notation format (JSON) in row-major order
http://www.bom.gov.au/fwo/IDN60901/IDN60901.95770.json